METAR AND TAF INFORMATION
METAR FOR GCLA
ADDS - METARS form results

(1659 UTC 15 July 2020)
Data provider http://aviationweather.gov/metar/data/
 
METAR text: GCLA 151630Z 01016KT 340V040 9999 FEW030 24/19 Q1014
Conditions at: GCLA (LA PALMA AIRPORT, ES) observed 1630 UTC 15 July 2020
Temperature: 24.0°C (75°F)
Dewpoint: 19.0°C (66°F) [RH = 74%]
Pressure (altimeter): 29.94 inches Hg (1014.0 mb)
Winds: from the N (10 degrees) at 18 MPH (16 knots; 8.2 m/s)
Visibility: 6 or more miles (10+ km)
Ceiling: at least 12,000 feet AGL
Clouds: few clouds at 3000 feet AGL
Weather: no significant weather observed at this time

METAR text: GCLA 151600Z 01016KT 9999 FEW030 25/19 Q1014
Conditions at: GCLA (LA PALMA AIRPORT, ES) observed 1600 UTC 15 July 2020
Temperature: 25.0°C (77°F)
Dewpoint: 19.0°C (66°F) [RH = 69%]
Pressure (altimeter): 29.94 inches Hg (1014.0 mb)
Winds: from the N (10 degrees) at 18 MPH (16 knots; 8.2 m/s)
Visibility: 6 or more miles (10+ km)
Ceiling: at least 12,000 feet AGL
Clouds: few clouds at 3000 feet AGL
Weather: no significant weather observed at this time

Forecast for: GCLA (LA PALMA AIRPORT, ES)
Text: TAF GCLA 151400Z 1515/1615 01015KT 9999 SCT025 TX26/1615Z TN20/1606Z
Forecast period: 1500 UTC 15 July 2020 to 1500 UTC 16 July 2020
Forecast type: FROM: standard forecast or significant change
Winds: from the N (10 degrees) at 17 MPH (15 knots; 7.7 m/s)
Visibility: 6 or more miles 10+ km)
Ceiling: at least 12,000 feet AGL
Clouds: scattered clouds at 2500 feet AGL
Weather: no significant weather forecast for this period

 AIRPORT MAP

 RUNWAY INFORMATION
Runway 01 Runway length 7218 ft Runway width 148 ft
Runway elevation 103 ft Runway displaced threshold 0 ft Runway heading 359
Runway 19 Runway length 7218 ft Runway width 148 ft
Runway elevation 65 ft Runway displaced threshold 0 ft Runway heading 179

 AIRPORT FREQUENCIES
Type APP Name CANARIAS A Frequency 126.1 MHZ
Type ATIS Name INFO Frequency 118.6 MHZ
Type GND Name GND Frequency 121.8 MHZ
Type TWR Name TWR Frequency 118.9 MHZ

 AIRPORT NEAR NAVIGATION AIDS
Type DME Name La Palma Frequency 112400 KHZ
Type NDB Name La Palma Frequency 389 KHZ



Powered by Virtual Airlines Manager [v2.6.2]